Canterbury, New Hampshire
Current Conditions -  °F | °C
As of 7:51 PM on Monday 20 Oct 2014 (Local Time) from KCON Reporting Station
Overcast Overcast  
Wind Chill: 48°   Ceiling: 8000
Heat Index: 48°   Visibility: 10mi
Dew Point: 36°   Wind: 3mph
Humidity: 63%   Direction: 150°SSE
Pressure: 29.96"   Gusts: NA
Location:  43.34°N, 71.57°W
Report Text: KCON 202351Z AUTO 15003KT 10SM OVC080 09/02 A2996 RMK AO2 SLP149 T00890022 10128 20083 51006
Loading
Personal Weather Stations






























Interactive Weather Map
Tropical Storm Tracking
New forecast layout! Learn more

10-Day Weather Forecast

Advertisements
Track Severe Weather on mobile